Airfield :
LOGIN :

Register | Disclaimer

   EN    FR    IT 

 










Legend :    VFR   Marginal VFR   IFR   Intensive IFR   Very Intensive IFR
Visi :
Ceiling :
>= 8 km
>= 3000ft
5 to 8 km
1000 to 3000 ft
1500m to 5 km
500 to 1000 ft
800 to 1500m
200 to 500 ft
< 800m
< 200 ft
Symbols :   Thunderstorms  Fog  Heavy snow  Heavy precipitations  Wind > 20 kt
SIGMETs :     Misc.  Thunderstorms  Icing  Turbulence  Mountain Waves  Volcanic Ashes







- Airport Elevation : 436 ft
- IATA code : ANG
- Download approach charts


LFBU - Angoulême Brie Champniers

CURRENT METAR :
  • 260730Z AUTO 04003KT 360V080 CAVOK 10/07 Q1024 NOSIG

EXPIRED METARs :
  • 260700Z AUTO 00000KT CAVOK 09/08 Q1024 TEMPO 0500 FG BKN005
  • 260630Z AUTO 00000KT 9999 FEW040 08/08 Q1024 TEMPO 0500 FG BKN005
  • 260600Z AUTO 14001KT 2200 R28/1100U BCFG SCT006 BKN039 06/06 Q1024 TEMPO 0500 FG BKN005
  • 260530Z AUTO 00000KT 0350 0300 R28/0250D FG OVC005 05/05 Q1023 NOSIG
  • 260500Z AUTO 00000KT 0500 0450 R28/0400D FG BKN008 05/05 Q1023
  • 260430Z AUTO 00000KT 0600 0450 R28/0650U FG NSC 05/04 Q1023

TAF TAF LFBU
Valid from the 26 at 06:00 until the 27 at 06:00 UTC


260500Z 2606/2706 33005KT 9999 BKN030
TEMPO 2606/2608 0500 FG BKN005
BECMG 2618/2620 CAVOK
No reported NOTAMs for that airfield.



MET'MAP, your aeronautical weather chart ! - Copyright ORBIFLY December 2007 - Disclaimer

ORBIFLY MET'MAP TEAM :

Programming & Development : Alexandra Zaïnal
Concept & Development : Baudouin d'Aumeries
Co-Development & Prog : Marc-Olivier Méhu
Technical & hardware support : Manuel Goepfert

Contact : metmap@orbifly.com




SOURCES & CREDITS :

   NOAA